Event Stats: Texas (FPO)

Last Updated: 2023-02-06 18:46:14

Shows events in the Statmando database that have been held in Texas and that include an FPO Division, capped at the most recent 1000 events.
Name EventEndDate Tour City FieldSize AvgRating TotalPurse EventRounds Winner WinnerEventRating WinnerCashPerThrow WinnerPrize
Lucky Ace Presents “Are Ya Feelin’ Lucky” Flex Start #4 2023-02-04 C The woodlands 1 830.0000 0 1 PDGA #77454 830.0000 0.0000 0
Lone Star Disc Flex Stonebridge 2023-02-02 C The woodlands 1 853.0000 73 1 PDGA #77454 853.0000 1.1587 73
Sugar Land Showdown 2023 2023-01-28 B Sugar Land 1 887.0000 0 2 PDGA #14933 887.0000 0.0000 0
Griplocked Flex #25 2023-01-28 C Garland 2 762.0000 31 1 PDGA #161740 817.0000 0.4769 31
The Prickly Pear Classic - A Wildflower Disc Golf Tour Event 2023-01-22 B Austin 18 883.2500 3,838 2 Jill Norwick 941.0000 4.1069 538
Dynamic Discs Presents the Winter Warm Up 2023-01-21 B Carrollton 4 851.2500 500 2 Lydia Lyons 902.5000 2.1008 250
Polar Open Redemption Round Flex Start 2023-01-15 C The Colony 1 836.0000 19 1 PDGA #88653 836.0000 0.2714 19
Chainwreck One Round Challenge @ Vets 2023-01-14 C Arlington 1 853.0000 27 1 Lydia Lyons 853.0000 0.4091 27
Winter Birdie Classic Flex 2023-01-14 C Canton 1 875.0000 23 1 Abigail Pull 875.0000 0.3594 23
Polar Open Flex Start Friday presented by The Disc Golf Dojo 2023-01-13 C The Colony 1 794.0000 19 1 PDGA #88653 794.0000 0.2714 19
Dynamic Discs Presents Straddle the Brazos 2023-01-08 B Waco 8 873.5625 1,500 2 Stephanie Vincent 933.5000 2.6860 325
Flex Start at Wilco 2023-01-08 C Leander 1 727.0000 26 1 Erin Reynolds 727.0000 0.3059 26
Lone Star Disc presents Stonebridge 2023-01-07 C The Woodlands 1 777.0000 76 2 Hali Trevena 777.0000 0.2923 38
Chainwreck Holiday Flex at Vets 2022-12-26 C Arlington 1 864.0000 22 1 PDGA #88653 864.0000 0.3492 22
Rivery Winter Meltdown - Driven by Innova 2022-12-18 C Georgetown 1 781.5000 96 2 PDGA #88653 781.5000 0.3636 48
Armory Disc Golf Winter Flex #3 - McDade 2022-12-17 C Conroe 1 890.0000 25 1 Barrett White 890.0000 0.4032 25
Dynamic Discs Presents the Trophy Club Open - All Pro & Intermediate 2022-12-17 B Trophy Club 6 863.8000 1,170 2 Maria Oliva 907.5000 2.5591 325
The Victoria Invitational - Supported by Innova Presented by OneStar & Gorilla Disc Golf 2022-12-04 B Victoria 3 893.2222 510 3 Aria Castruita 918.3333 0.9497 170
Griplocked Flex #22 2022-11-27 C Garland 1 724.0000 16 1 PDGA #231942 724.0000 0.2133 16
Hamilton Creek Open - Driven by Innova 2022-11-27 C Burnet 2 848.0000 0 2 PDGA #99350 859.5000 0.0000 0
Texas States Warmup at Brock Park-Gorilla Disc Golf / Houston Disc Golf- Driven by Innova 2022-11-20 C Houston 4 847.1250 150 2 PDGA #158461 909.5000 0.0000 0
PAR4 Discs Presents the Audubon Flex 2022-11-20 C Garland 1 697.0000 0 1 PDGA #231942 697.0000 0.0000 0
DISConnect Bird Hunt 2022 2022-11-19 C Lubbock 2 915.2500 430 2 Jenny Munn 918.5000 2.1500 215
Flex Start at Swordstone 2022-11-13 C Spicewood 2 822.0000 52 1 Erin Reynolds 841.0000 0.7536 52
21st Alex Clark Memorial Presented by Mint Discs & Powered by the MDGA 2022-11-12 B McKinney 1 834.5000 180 2 PDGA #88653 834.5000 0.6383 90
2nd Annual Women's Fall Classic 2022-11-12 C Longview 2 890.0000 110 2 PDGA #22432 917.0000 0.4661 55
Fuego Friday Flex Start presented by Mint Discs - Veterans Day Special 2022-11-11 C Austin 1 771.0000 22 1 PDGA #46009 771.0000 0.3548 22
KR8om presents 32nd Veterans Park Open powered by MINT DISCS (Pro Weekend) 2022-11-06 A Arlington 12 904.5758 6,195 3 Aria Castruita 998.6667 4.4118 750
11th Annual Oilfield Blowout Presented by Innova 2022-11-06 B Midland 2 876.0000 0 3 PDGA #111487 881.0000 0.0000 0
Flex Start at Searight 2022-11-06 C Austin 1 804.0000 26 1 Erin Reynolds 804.0000 0.4127 26
PAR4 Discs Presents the Bill Allen Flex 2022-11-06 C The Colony 1 888.0000 18 1 PDGA #88653 888.0000 0.2951 18
Flex Start at Circle C 2022-11-05 C Austin 1 814.0000 26 1 Erin Reynolds 814.0000 0.3562 26
Spooky Sunday at Steeplechase - Flex Start 2022-10-30 C Austin 1 822.0000 36 1 PDGA #84208 822.0000 0.5625 36
2022 NADGT National Championships Presented by Lone Star Discs 2022-10-29 NADGT Austin 16 867.6607 15,650 5 Cadence Burge 905.0000 3.4130 1,000
Fall Fairway to Heaven - Houston Disc Golf - Driven by Innova 2022-10-29 B spring 2 890.2500 372 2 PDGA #36811 900.0000 1.5897 186
45th Annual Waterloo Disc Golf Classic (CEP Charity - Rated) 2022-10-23 XC Austin 6 881.4167 518 2 Des Reading 909.0000 1.0789 123
Lucky Ace Live Oak Flex 2022-10-23 C Live Oak 1 23 1 PDGA #109356 0.3433 23
2022 Wilco Flex #2 - Presented by 1010 Discs 2022-10-22 C Leander 2 853.5000 64 1 Abigail Pull 884.0000 0.9275 64
Put in Work Wednesdays - Flex Start #11 - Zilker Park - Presented by RAD DG 2022-10-19 C Austin 1 836.0000 21 1 PDGA #84208 836.0000 0.3684 21
Throwdown Showdown IV sponsored by Michelob Ultra 2022-10-16 B Austin 3 883.8333 870 2 Aria Castruita 927.0000 2.0149 270
Dynamic Discs Presents the Carrollton Classic - 2022 Dirty Dozen Tour Finale 2022-10-16 B Carrollton 4 804.1667 2,370 3 PDGA #232825 872.0000 2.8453 515
Jack Brooks Open - Driven by Innova 2022-10-15 B Hitchcock 1 830.0000 0 2 PDGA #158461 830.0000 0.0000 0
West Texas Disc Golf Champions Tournament 2022-10-09 B Big Spring 1 831.6667 687 3 Jenny Munn 831.6667 0.9622 229
Lucky Ace Bandera Flex 5 2022-10-09 C Bandera 1 774.0000 0 1 PDGA #191325 774.0000 0.0000 0
Chainwreck Flex at Gateway X 2022-10-08 C Fort Worth 2 844.0000 0 1 PDGA #189996 873.0000 0.0000 0
Dynamic Discs Presents the 19th Annual Piney Woods Open 2022-10-02 A Tyler 9 897.6667 6,600 3 Aria Castruita 942.3333 5.1546 1,000
Bullseye's to Baskets - Presented by Houston Darts, Disc, and Games, Hosted by HDG 2022-10-01 B Spring 1 832.5000 182 2 PDGA #77454 832.5000 0.7165 91
Put in Work Wednesdays - Flex Start #8 - Zilker Park - Presented by RAD DG 2022-09-28 C Austin 1 845.0000 20 1 PDGA #84208 845.0000 0.3636 20
Chain Bombers presents the NMCS McKinney Classic, Driven by Innova 2022-09-25 B McKinney 2 873.8333 1,110 3 Caroline Henderson 933.3333 2.0442 370
Flex Start at Roy G 2022-09-25 C Austin 2 801.5000 52 1 PDGA #50123 828.0000 0.6933 52
Midwestern State University Open GDG 5k/10k event 2022-09-24 B Wichita Falls 1 862.0000 202 2 PDGA #52727 862.0000 0.7063 101
The Westar Realty, Lone Star Disc, Legacy Discs, Team Concept Sports 2022 Hub City Classic presented by DISConnect 2022-09-18 C Lubbock 2 889.8333 672 3 Holly May 901.3333 1.0718 224
Dynamic Discs Presents the Lewisville Open in Memory of Tom "Old Man" McCutcheon 2022-09-11 B Lewisville 3 874.4286 900 3 Caroline Henderson 917.6667 1.1364 200
Bo9s "The Chain Tickler" 2022-09-10 C The Woodlands 2 859.7500 224 2 PDGA #97672 881.5000 0.9825 112
Fuego Friday Flex Start #9 presented by Mint Discs 2022-09-09 C Pflugerville 1 903.0000 22 1 PDGA #50123 903.0000 0.3793 22
Red River Open Powered by Prodigy 2022-08-28 B Denison 1 803.5000 240 2 PDGA #97355 803.5000 0.8333 120
Ideal Flex @ Gateway (SUN) 2022-08-21 C fort worth 1 812.0000 66 1 PDGA #94948 812.0000 1.0820 66
Fuego Friday Flex Start #8 presented by Mint Discs 2022-08-19 C Austin 1 866.0000 22 1 PDGA #50123 866.0000 0.4074 22
The 5th Annual Swordstone Social Driven by Innova 2022-08-14 C Spicewood 7 837.5714 974 2 PDGA #46009 898.5000 1.9748 235
Fuego Friday Flex Start #7 presented by Mint Discs 2022-08-12 C Austin 1 846.0000 22 1 PDGA #50123 846.0000 0.4000 22
WGE - 7th Annual Miss Mckinney 2022-08-06 C McKinney 5 882.9000 350 2 Sabre Peterson 948.0000 1.1702 110
WGE - ACDC Presents the Women's Hill Country Open Powered by Mint Discs 2022-08-06 C Helotes 2 833.5000 140 2 PDGA #67404 847.5000 0.5691 70
WGE - Space City Stars fueled by Lone Star Disc 2022-08-06 C The Woodlands 4 882.1250 120 2 PDGA #158461 923.0000 0.0000 0
Fuego Friday Flex Start #6 presented by Mint Discs 2022-08-05 C Austin 2 821.5000 44 1 Krissie Fountain 828.0000 0.7719 44
2022 Sizzler presented by BATADGA driven by Innova Champion Discs 2022-07-31 B Junction 4 872.3333 789 3 PDGA #111487 906.3333 0.0000 0
Lucky Ace Presents The Conroe Crush! 2022-07-31 B Conroe 5 837.4000 0 2 Jill Norwick 876.5000 0.0000 0
PAR4 Discs Presents the Audubon Flex 2022-07-31 C Garland 1 877.0000 18 1 Caroline Henderson 877.0000 0.3103 18
Fuego Friday Flex Start #5 presented by Mint Discs 2022-07-29 C Austin 2 866.5000 44 1 Erin Reynolds 873.0000 0.8148 44
Griplocked Flex #17 2022-07-23 C Garlad 1 915.0000 20 1 Caroline Henderson 915.0000 0.3636 20
Dynamic Discs Flex Start Friday @ Greenbelt Park #2 2022-07-22 C Carrollton 1 743.0000 15 1 PDGA #190773 743.0000 0.2027 15
Lucky Ace “Do The Mathe” 1K on A Wednesday 4 2022-07-20 C Spring 1 816.0000 0 1 PDGA #77454 816.0000 0.0000 0
Dynamic Discs Presents the 30th Annual Big Arms on the Brazos 2022-07-17 B Lubbock 2 806.2000 645 3 Holly May 896.6667 1.0287 215
Mint Discs Presents the Gonzo Liberty Battle (A HOTT Points event) - PRO Day 2022-07-17 C Gonzales 2 902.0000 272 2 Krissie Fountain 909.5000 1.1148 136
Summer Flex Start at Bill Allen presented by The Disc Golf Dojo 2022-07-16 C The Colony 1 769.0000 15 1 PDGA #190773 769.0000 0.2174 15
Lucky Ace “Do The Mathe” 1K On A Wednesday 3 2022-07-13 C Spring 1 785.0000 0 1 PDGA #77454 785.0000 0.0000 0
Chainwreck flex at Cedar Hill(coyote) II 2022-07-09 C Cedar hill 2 838.5000 44 1 PDGA #116281 844.0000 0.6875 44
Sup Dog Open 2022 presented by DISConnect 2022-07-02 C Lubbock 2 887.2500 0 2 Holly May 906.5000 0.0000 0
Lucky Ace Do The Mathe 1k! 2022-06-29 C Spring 1 783.0000 28 1 PDGA #77454 783.0000 0.4242 28
Dynamic Discs Presents the Abilene Wild Hair 2022-06-19 B Abilene 1 850.6667 0 3 PDGA #111487 850.6667 0.0000 0
Mint Discs Presents the 2nd Annual Ian Hovey Memorial (A HOTT Points event) - Pros 2022-06-19 C Belton 2 929.2500 0 2 Stephanie Vincent 941.0000 0.0000 0
Griplocked Flex #14 2022-06-18 C Garland 1 865.0000 20 1 Caroline Henderson 865.0000 0.3333 20
Lone Star Disc Presents: The Greater Houston Flex Series (Week 2) 2022-06-13 C Houston 2 855.0000 0 1 PDGA #77454 905.0000 0.0000 0
19th Annual Live Oak Summer Open 2022-06-12 B Live Oak 3 883.5000 686 2 Aria Castruita 959.0000 1.9196 215
Lucky Ace Do The Mathe 13 2022-06-08 C Spring 1 859.0000 0 1 PDGA #77454 859.0000 0.0000 0
Dynamic Discs Presents the Nacogdoches Open 2022-06-05 B Nacogdoches 6 883.5556 1,755 3 Aria Castruita 921.0000 1.7680 320
LowPutt Disc Golf Presents Waist Deep Open 2022-06-05 B Wichita Falls 2 861.5000 531 3 PDGA #52727 884.3333 0.8429 177
Rivery Summer Metldown - Driven by Innova 2022-05-29 C Georgetown 1 864.5000 0 2 PDGA #89793 864.5000 0.0000 0
DISConnect presents the Battle at Brownfield 2022 2022-05-29 C Brownfield 3 897.5000 0 2 Holly May 923.0000 0.0000 0
Lucky Ace Space City Flex 12 2022-05-22 C Spring 1 866.0000 0 1 PDGA #133758 866.0000 0.0000 0
Griplocked Flex #12 2022-05-21 C Garland 1 895.0000 40 1 Lydia Lyons 895.0000 0.6897 40
Disc Kingz Open 2022-05-21 C Elmendorf 1 783.0000 118 2 PDGA #88653 783.0000 0.4683 59
Lucky Ace "Do the Mathe" 9 2022-05-18 C Spring 2 841.0000 0 1 PDGA #77454 846.0000 0.0000 0
The 31st Capital of Texas Open Presented by Mint Discs (A HOTT Qualifier event) 2022-05-15 A Austin 8 898.1250 5,184 3 Stephanie Vincent 954.6667 3.5808 709
Chain Bombers presents The Dallas Open driven by INNOVA 2022-05-15 B Grand Prarie 1 820.0000 190 2 PDGA #190773 820.0000 0.6786 95
Lucky Ace Space City Flex 11 2022-05-15 C Spring 1 883.0000 0 1 Hali Trevena 883.0000 0.0000 0
Dynamic Discs Flex Start Friday @ Turner Park 2022-05-13 C Grand Prairie 1 833.0000 15 1 Lydia Lyons 833.0000 0.2055 15
Lucky Ace "Do the Mathe" 2022-05-11 C Spring 1 843.0000 0 1 PDGA #97672 843.0000 0.0000 0
NO ATX Open 2022-05-08 B Round Rock 2 909.0000 460 2 Holyn Handley 945.5000 1.9008 230
Dynamic Discs Presents Mother's Day Madness - ALL PRO and INT DIVISIONS ONLY 2022-05-08 B Trophy Club 3 839.0000 370 2 PDGA #116281 868.5000 1.3806 185
Fairway to Heaven III - Driven by Innova - Presented by Houston Disc Golf 2022-05-07 C Spring 1 910.5000 132 2 Krissie Fountain 910.5000 0.5000 66
LowPutt Presents Battle at the Spring 2022-05-07 C Big Spring 1 872.5000 112 2 PDGA #101735 872.5000 0.3862 56
17th Texas Women's Championship 2022-05-01 B Round Rock 6 828.5000 2,246 2 PDGA #46009 893.0000 4.0379 533
3rd Annual FOX Trot 2022-04-30 C Victoria 3 824.6667 150 2 PDGA #159741 860.0000 0.0000 0
The 2nd Annual Mint Discs Open (HOTT Qualifier event) 2022-04-24 B Waelder 2 916.0000 663 3 Stephanie Vincent 936.6667 1.0000 221
Ideal Discs Open 4 (IDO)---B Tier 2022-04-23 B haltom city 3 830.0000 600 2 PDGA #72520 856.5000 1.4122 185
Lucky Ace "Do The Mathe" 8 2022-04-20 C The Woodlands 1 920.0000 0 1 PDGA #97672 920.0000 0.0000 0
The WTF Open 2022-04-16 C Waelder 11 879.4091 3,152 2 Stephanie Vincent 952.0000 4.7731 568
Chain Bombers presents Mayhem at Munson driven by INNOVA 2022-04-16 B Denison 1 805.0000 200 2 PDGA #97355 805.0000 0.5917 100
Dynamic Discs Flex Start Friday @ Gateway DGC 2022-04-15 C Fort Worth 1 981.0000 15 1 Lydia Lyons 981.0000 0.3125 15
Mayhem at Munson Flex Start Friday presented by The Disc Golf Dojo 2022-04-15 C Denison 1 838.0000 15 1 PDGA #97355 838.0000 0.2143 15
2022 Bluebonnet Open benefitting the Ingleside Volunteer Fire Department 2022-04-09 C Ingleside 1 883.5000 90 2 PDGA #36811 883.5000 0.3516 45
Saddle -Up 2022 [Tonys Discs] 2022-04-09 C White Settlement 1 829.5000 126 2 PDGA #88653 829.5000 0.4961 63
27th Annual Texas State Disc Golf Championship Sponsored by Latitude 64 2022-04-03 A Tyler 11 910.5758 11,400 4 Ohn Scoggins 968.0000 5.4187 1,100
Lumberjack Classic - Driven by Innova 2022-04-03 C Conroe 2 807.7500 0 2 PDGA #89793 877.0000 0.0000 0
LowPutt Disc Golf Presents the Luck of The Draw 2022-04-03 B Odessa 3 885.2222 537 3 Holly May 907.0000 0.8027 179
Chainwreck Flex at Vets XII 2022-04-03 C Arlington 2 817.0000 44 1 PDGA #88653 847.0000 0.6667 44
DGPT - 27th Annual Texas State Disc Golf Championship Presented by Latitude 64 2022-03-27 DGPT Tyler 47 928.9928 64,647 3 Paige Pierce 990.0000 21.7391 4,000
1st Battle for the Buffalo Presented by Rhoads Drilling Co. 2022-03-27 C Lubbock 1 869.3333 285 3 Jenny Munn 869.3333 0.4419 95
Texas State One Round Challenge #2 2022-03-26 C Tyler 3 855.6667 44 1 Carly Shintaku 860.0000 0.3929 22
Texas State One Round Challenge #2 2022-03-26 C Tyler 3 855.6667 44 1 Leah Tsinajinnie 860.0000 0.3929 22
PAR4 Discs Presents the Audubon Flex 2022-03-26 C Garland 2 854.5000 36 1 Caroline Henderson 906.0000 0.6429 36
Texas State One Round Challenge 2022-03-25 C Tyler 1 855.0000 15 1 Carly Shintaku 855.0000 0.2632 15
Discraft presents THE OPEN at BELTON, a DGPT Silver Series Event 2022-03-20 DGPT-Silver Belton 38 931.0973 27,600 3 Catrina Allen 983.0000 9.1209 1,660
Karbach Brewing Co. presents the 2022 Greater Houston Disc Golf Championships - Powered by Innova - a H.O.T.T. Tour Qualifier 2022-03-20 B Baytown 3 867.0000 408 3 PDGA #158461 914.0000 0.0000 0
B.B. Owen Innova C-Tier Dallas, TX 2022-03-19 C Dallas 1 784.0000 58 1 PDGA #88653 784.0000 0.8406 58
DGPT - Waco Annual Charity Open presented by Prodigy Disc 2022-03-13 DGPT Waco 47 935.7660 64,785 3 Valerie Mandujano 990.6667 20.8333 4,000
Griplocked Flex #8 2022-03-12 C Garland 1 571.0000 16 1 PDGA #176816 571.0000 0.1818 16
Lucky Ace "Do the Mathe" 5 2022-03-09 C The Woodlands 2 876.0000 54 1 PDGA #97672 882.0000 0.9643 54
20th Annual Crush on the Concho 2022-03-06 B San Angelo 4 885.9167 540 3 PDGA #111487 914.6667 0.0000 0
Mint Discs presents The 24th Red Rock Show (A HOTT Qualifier Event) 2022-03-06 B Red Rock 2 828.8333 822 3 Krissie Fountain 872.6667 1.2455 274
2022 Claydog Memorial presented by ADGA & Texas Chainwreck 2022-03-06 B Arlington 2 872.7500 368 2 Lydia Lyons 920.0000 1.3333 184
Sunday Funday @ North Park 3/6 2022-03-06 C HALTOM CITY 1 818.0000 23 1 PDGA #88653 818.0000 0.3485 23
Lucky Ace "Do the Mathe" 4 2022-03-02 C The Woodlands 2 913.0000 55 1 Hali Trevena 931.0000 1.0577 55
Flex Start at Bill Allen presented by The Disc Golf Dojo 2022-02-27 C The Colony 1 827.0000 15 1 PDGA #88653 827.0000 0.2273 15
Octopus Prime FLEX @ Arcadia driven by INNOVA 2022-02-27 C fort worth 2 808.0000 0 1 PDGA #62980 842.0000 0.0000 0
Lucky Ace Space City Flex 7 2022-02-27 C Spring 1 876.0000 30 1 PDGA #97672 876.0000 0.4839 30
3rd Annual Coastal Clash Sponsored by Lone Star Disc 2022-02-26 B Baytown 1 911.0000 0 2 PDGA #158461 911.0000 0.0000 0
Lucky Ace "Do the Mathe" 3 2022-02-23 C Spring 1 33 1 PDGA #97672 0.5077 33
Chainwreck Flex at Vets XI 2022-02-20 C Arlington 1 796.0000 22 1 PDGA #88653 796.0000 0.3014 22
Lucky Ace Space City Flex 6 2022-02-20 C Spring 1 918.0000 36 1 Hali Trevena 918.0000 0.6429 36
The Golden Crescent Disc Golf Club presents the 39th VICTORIA OPEN - a H.O.T.T. Tour Qualifier 2022-02-20 B Victoria 9 907.7037 2,184 3 Valerie Mandujano 961.3333 1.7692 299
LowPutt Disc Golf Presents Rocky Hills Winter Classic 2022-02-19 C Ovalo 1 906.5000 0 2 PDGA #111487 906.5000 0.0000 0
2022 WilCat Double Header - Driven by Innova 2022-02-19 C Round Rock 2 838.5000 192 2 Hali Trevena 849.0000 0.7385 96
Dynamic Discs Flex Start Friday @ Trophy Club 2022-02-18 C Trophy Club 2 846.0000 15 1 PDGA #45063 846.0000 0.0000 0
Dynamic Discs Flex Start Friday @ Trophy Club 2022-02-18 C Trophy Club 2 846.0000 15 1 PDGA #116281 846.0000 0.2174 15
Lucky Ace "Do the Mathe" 2 2022-02-16 C The Woodlands 1 885.0000 31 1 Hali Trevena 885.0000 0.5536 31
Dynamic Discs Presents the Cedar Hill Chill 2022-02-12 B Cedar Hill 8 879.7333 1,720 2 Holyn Handley 952.5000 3.1034 360
Dynamic Discs Flex Start Friday @ Beaver 2022-02-11 C Cedar Hill 1 932.0000 15 1 Hali Trevena 932.0000 0.2632 15
Lucky Ace "Do The Mathe" Flex 2022-02-09 C Conroe 1 845.0000 40 1 Hali Trevena 845.0000 0.5970 40
Space City Flex 4 2022-02-06 C Spring 1 891.0000 48 1 Casey Pennington 891.0000 0.8421 48
Frostbite Open II @ North Park 2022-02-06 C HALTOM CITY 3 848.6667 80 1 PDGA #88653 866.0000 0.8871 55
2022 The Best of West - Driven by Innova 2022-02-05 C Waco 2 855.0000 192 2 Lydia Lyons 900.0000 0.8421 96
Lucky Ace Space City Flex 2022-01-30 C Spring 2 893.0000 79 1 Casey Pennington 920.0000 1.4107 79
The Hideaway Open 2022-01-30 B Terrell 4 815.3750 730 2 Caroline Henderson 857.0000 1.6197 230
2022 Sugar Land Showdown - Powered by Innova 2022-01-29 C Sugar Land 3 930.5000 378 2 Casey Pennington 940.5000 0.9219 118
PAR4 Presents Audubon Flex 2022-01-28 C Garland 1 728.0000 0 1 PDGA #129536 728.0000 0.0000 0
2022 Baytown Boomtown - Driven by Innova 2022-01-23 C Baytown 3 899.1667 180 2 Christina Linthicum 917.0000 0.7377 90
PAR4 Presents the Princeton Flex 2022-01-22 C Princeton 1 866.0000 18 1 PDGA #88653 866.0000 0.2903 18
Dynamic Discs Presents the Lewisville Winter Warm Up 2022-01-22 B Lewisville 9 883.2778 1,720 2 Holyn Handley 937.5000 3.7037 400
HFDS presents The Cap with Bells Classic Driven by Innova and 4TC 2022-01-22 C Houston 3 896.6667 108 2 PDGA #158461 932.0000 0.0000 0
Dynamic Discs Flex Start Friday @ Old Man DGC 2022-01-21 C Lewisville 2 825.0000 30 1 Lydia Lyons 825.0000 0.2239 15
Dynamic Discs Flex Start Friday @ Old Man DGC 2022-01-21 C Lewisville 2 825.0000 30 1 Caroline Henderson 825.0000 0.2239 15
Chainwreck Flex at Vets X 2022-01-16 C arlington 1 728.0000 22 1 PDGA #88653 728.0000 0.3014 22
Lucky Ace Space City Flex 2022-01-16 C Spring 2 929.0000 64 1 Casey Pennington 951.0000 1.2075 64
Belton Winter Blast - Driven by Innova 2022-01-15 C Belton 1 847.0000 96 2 Hali Trevena 847.0000 0.2909 48
Chainwreck Flex at Gateway VI 2022-01-15 C Fort Worth 1 853.0000 22 1 PDGA #88653 853.0000 0.3438 22
Dynamic Discs Presents Straddle the Brazos 2022-01-09 B Waco 8 882.3750 1,480 2 Krissie Fountain 929.0000 2.5591 325
Roc Shop Presents: Resolution Revolution powered by Innova 2022-01-01 B Spring Branch 3 890.6667 806 2 Stephanie Vincent 940.5000 1.8966 220
PAR4 Presents Audubon Flex 2021-12-26 C Garland 1 798.0000 25 1 PDGA #88653 798.0000 0.3731 25
Rivery Winter Meltdown - Driven by Innova 2021-12-19 C Georgetown 1 822.5000 0 2 PDGA #89793 822.5000 0.0000 0
The Victoria Invitational powered by INNOVA 2021-12-12 B Victoria 1 873.5000 174 2 PDGA #36811 873.5000 0.6493 87
Flex The Halls Powered By Lucky Ace Discs 2021-12-12 C The Woodlands 1 938.0000 47 1 Casey Pennington 938.0000 0.8868 47
Southern Star Disc Golf Duo 2021-12-11 C Conroe 1 878.0000 98 2 Casey Pennington 878.0000 0.3798 49
ATX Open 2021 2021-12-05 B Austin 4 893.9167 1,230 3 Maria Oliva 924.6667 1.2500 260
Flex The Halls Powered By Lucky Ace Discs 2021-12-05 C Spring 1 975.0000 23 1 Casey Pennington 975.0000 0.4510 23
The Griplocked Flex #4 2021-12-05 C Garland 1 859.0000 46 1 PDGA #88653 859.0000 0.7419 46
Weatherford Throwdown 2021 2021-12-04 C Weatherford 4 823.6250 520 2 PDGA #94948 848.0000 1.1985 163
Dynamic Discs Presents the Trophy Club Open - Pro/Int 2021-11-28 B Trophy Club 5 845.8000 620 2 Maria Oliva 936.5000 1.6807 200
Smithville Fall Fling 2021 2021-11-28 L Smithville 5 847.0000 0 8 Krissie Fountain 886.3333 0
5th Street - Driven by Innova 2021-11-27 C Temple 1 830.5000 0 2 PDGA #89793 830.5000 0.0000 0
Third Coast Memorial driven by Innova 2021-11-21 B Corpus Christi 2 822.6667 510 3 PDGA #36811 838.3333 0.7870 170
Samurai Showdown II @Gateway Park Hosted by Ideal Discs 2021-11-21 C Fort Worth 3 858.6667 115 1 Caroline Henderson 882.0000 1.2456 71
DISConnect Bird Hunt 2021 2021-11-21 C Lubbock 3 875.0000 400 2 Jenny Munn 885.0000 1.1818 130
DISConnect WTF Mini (Weekly Thursday Flex-start) 2021-11-21 L Lubbock 1 0 0 Jenny Munn 0
Barsby Battle Series Presents: Disc Golf Weekend @ Lake Striker Resort 2021-11-20 C Henderson 2 842.7500 0 2 Rochelle Browning 876.0000 0.0000 0
Olde Town Throwdown Presented By: Nacogdoches Crushers 2021-11-14 B Nacogdoches 6 867.3750 2,283 3 Maria Oliva 947.6667 2.1047 362
10th Annual Oilfield Blowout 2021-11-14 B Midland 2 874.6667 0 3 PDGA #111487 871.0000 0.0000 0
Rumble at the Cat - Driven by Innova 2021-11-14 C Round Rock 1 824.0000 90 2 PDGA #88653 824.0000 0.3409 45
Waco Annual Charity Open - AM / Age Protected 2021-11-14 B Waco 1 855.5000 300 2 PDGA #116281 855.5000 0.9615 150
The 20th Alex Clark Memorial 2021-11-13 B McKinney 3 841.5000 170 2 PDGA #45063 877.0000 0.0000 0
31st Veterans Park Open Pro weekend 2021-11-07 A arlington 13 853.6154 6,585 3 Holyn Handley 940.6667 3.6990 725
"Texas Hill Country Classic" Presented by Lucky Ace Discs 2021-11-07 B Helotes 3 874.5000 962 2 Melody Castruita 898.5000 2.5294 301
Women's Fall Classic @ South Spring 2021-11-06 C Tyler 2 872.2500 136 2 Julie Eagle 891.0000 0.3898 46
PAR4 Presents the Flex Old Man 2021-11-04 C Lewisville 3 822.3333 34 1 PDGA #88653 853.0000 0.5313 34
NADGT-National Championships 2021-10-31 NADGT Austin 46 842.4276 29,904 4 Aria Castruita 959.0000 9.7656 2,500
Spring Valley Spectacular 2021-10-31 B Spring 3 896.1667 550 2 Krissie Fountain 939.0000 1.0299 172
Monster Mash Driven by Innova 2021-10-31 C haltom city 2 866.0000 56 1 PDGA #88653 907.0000 1.0182 56
MACK ATTACK 2021 DISConnect One Day C Tier 2021-10-31 C Lubbock 2 894.0000 0 2 PDGA #111487 911.0000 0.0000 0
Til Death Do Us PUTT by Discraft 2021-10-30 C Fort Worth 2 769.5000 56 1 PDGA #88653 775.0000 0.8116 56
Dynamic Discs Flex Start Friday @ Princeton 2021-10-29 C Princeton 1 813.0000 15 1 PDGA #97355 813.0000 0.2113 15
PAR4 Presents the Audubon Flex Start 2021-10-23 C Garland 1 804.0000 18 1 PDGA #97355 804.0000 0.2687 18
Pin High League 2021-10-18 L Midland 1 634.3000 0 10 PDGA #153269 634.3000 0
44th Annual Waterloo Disc Golf Classic 2021-10-17 C Austin 3 877.5556 510 3 Krissie Fountain 926.0000 0.7006 110
11th Annual Chicken Fried Steak Disc Golf Tournament presented by DISConnect 2021-10-17 C Lamesa 2 893.5000 510 3 Holly May 906.0000 0.9290 170
Dynamic Discs Presents the Carrollton Classic - The Dirty Dozen Tour Finale 2021-10-17 B Carrollton 3 796.3333 210 3 PDGA #45063 834.0000 0.0000 0
PAR4 Presents the Bill Allen Flex Start 2021-10-16 C The Colony 2 781.5000 36 1 Caroline Henderson 787.0000 0.5373 36
Dynamic Discs Flex Start Friday @ Trey Deuce 2021-10-08 C Mount Vernon 1 831.0000 15 1 PDGA #88653 831.0000 0.1875 15
Dynamic Discs Presents the Piney Woods Open 2021-10-03 A Tyler 12 875.8235 9,075 3 Stephanie Vincent 907.3333 6.0914 1,200
West Texas Disc Golf Champions Tournament 2021-10-03 B Big Spring 3 873.5556 510 3 PDGA #111487 898.3333 0.0000 0
PWO One Round Challenge @ The ROC #2 2021-10-02 C Tyler 1 835.0000 15 1 PDGA #88653 835.0000 0.2586 15
Westside Royal Battle II @Z Boaz supported by INNOVA 2021-09-26 C benbrook 1 773.0000 28 1 PDGA #88653 773.0000 0.3836 28
PAR4 Presents the Flex at Old Man 2021-09-25 C Lewisville 1 738.0000 18 1 PDGA #88653 738.0000 0.2432 18
Throwild Grand Opening Flex Start 2021-09-25 C Mckinney 4 842.2500 72 1 PDGA #97355 873.0000 0.7667 46
2nd Annual McKinney Classic 2021-09-19 B McKinney 6 850.2778 1,641 3 Emily Beach 936.3333 2.2012 372
The Rumble at the Ranch - Pro 2021-09-19 C Waelder 1 913.0000 136 2 Krissie Fountain 913.0000 0.4474 68
Throwing the W 2021 2021-09-18 C Weatherford 1 901.5000 116 2 Lydia Lyons 901.5000 0.4754 58
McKinney Classic Flex Start at Alex Clark Memorial presented by Tree Love 2021-09-17 C McKinney 1 807.0000 22 1 PDGA #154722 807.0000 0.3385 22
Dynamic Discs Presents the Lewisville Open in Memory of Tom "Old Man" McCutcheon 2021-09-12 B Lewisville 7 864.4286 1,335 3 Emily Beach 908.0000 1.2784 225
The Mint Discs Open 2021-09-05 B Belton 4 873.1250 840 2 Krissie Fountain 927.0000 2.0703 265
Lamesa Labor Day Bash presented by DISConnect 2021-09-04 C Lamesa 2 882.5000 0 2 PDGA #111487 880.5000 0.0000 0
PAR4 Presents Harry Myers Flex 2021-09-02 C Rockwall 1 869.0000 18 1 PDGA #88653 869.0000 0.2903 18
DISConnect WTF Mini (Weekly Thursday Flex-start) 2021-09-02 L Lubbock 1 0 0 Jenny Munn 0
Lucky Ace Discs Presents "Blazzin Summer Daze" at Moodys Ranch 2021-08-29 B Red Rock 5 891.9000 1,358 2 Stephanie Vincent 942.5000 4.0000 424
Flexin at Paschall Park thrown by Tree Love 2021-08-29 C Mesquite 1 852.0000 22 1 PDGA #88653 852.0000 0.3548 22
PAR4 Presents the Princeton Flex 2021-08-28 C Princeton 2 760.5000 0 1 PDGA #74726 793.0000 0.0000 0
Dynamic Discs Flex Start Friday @ Munson 2021-08-27 C Denison 2 786.0000 30 1 PDGA #97355 810.0000 0.4167 30
Triple Play Sunday @ Gateway Park 2021-08-22 C Fort Worth 1 710.0000 28 1 PDGA #88653 710.0000 0.3889 28
Triple Play Sat @ Arcadia Park 2021-08-21 C Fort Worth 1 824.0000 28 1 PDGA #88653 824.0000 0.4118 28
Triple Play Friday @ North Park 2021-08-20 C haltom city 1 812.0000 28 1 PDGA #88653 812.0000 0.4375 28
CB Dallas Open 2021-08-15 B Grand Prairie 1 806.0000 138 2 PDGA #88653 806.0000 0.4792 69
Dynamic Discs Flex Start Friday @ Bill Allen 2021-08-13 C The Colony 2 800.5000 30 1 PDGA #88653 817.0000 0.4615 30
Chicks Chasing Chains 2021 Session 3 2021-08-11 L The Woodlands 2 857.0000 0 3 PDGA #97672 0
Dynamic Discs Presents the Cedar Hill Open 2021-08-08 B Cedar Hill 2 803.0000 0 3 PDGA #116281 820.6667 0.0000 0
The First University of TEXAS Summer Open 2021-08-07 C Gonzales 1 931.5000 140 2 Krissie Fountain 931.5000 0.5600 70
North Texas Ladies League 2021-08-06 L Mckinney 1 888.0000 0 2 Caroline Henderson 888.0000 0
Sunday Funday @ Dino Hills Disc Golf Farm 2021-08-01 C Fort Worth 1 783.0000 23 1 PDGA #88653 783.0000 0.3067 23
2021 Sizzler presented by BATADGA driven by Innova Champion Discs 2021-08-01 B Junction 7 869.6190 2,922 3 Stephanie Vincent 925.0000 3.0395 462
Munson Flex Presented By Par4 Disc Golf 2021-07-31 C Denison 3 826.3333 34 1 PDGA #97355 855.0000 0.5000 34
Dynamic Discs Flex Start Friday @ Jimmy Porter 2021-07-30 C Carrollton 4 757.2500 0 1 PDGA #94948 827.0000 0.0000 0
Tree Love Flex at Greenbelt DGC 2021-07-25 C Carrolton 1 822.0000 22 1 PDGA #88653 822.0000 0.3492 22
The Inaugural Tiger Open 2021-07-24 C McKinney 1 805.5000 106 2 PDGA #88653 805.5000 0.2944 53
Chainwreck Flex at Cedar Hill(Coyote) 2021-07-24 C Cedar Hill 1 908.0000 0 1 PDGA #116281 908.0000 0.0000 0
Tiger Open Flex Start Friday 2021-07-23 C McKinney 1 731.0000 0 1 PDGA #88653 731.0000 0.0000 0
Dynamic Discs Flex Start Friday @ Greenbelt 2021-07-23 C Carrollton 1 812.0000 0 1 PDGA #116281 812.0000 0.0000 0
WTF Women's Wednesdays 2021-07-21 L Austin 3 888.1111 0 8 Krissie Fountain 890.6250 0
Dynamic Discs Presents the 29th Annual Big Arms on the Brazos 2021-07-18 B Lubbock 4 846.2500 690 3 PDGA #111487 885.0000 0.0000 0
The Great Texas Mosquito Mash 2021 2021-07-17 C Clute 2 835.5000 332 2 PDGA #97672 852.0000 1.2576 166
Chainwreck Flex at Friz II 2021-07-17 C Irving 1 851.0000 0 1 PDGA #116281 851.0000 0.0000 0
BB Owens Flex Sunday 2021-07-11 C dallas 1 783.0000 22 1 PDGA #88653 783.0000 0.2716 22
Gorilla Jam at Jack Brooks - Driven by Innova 2021-07-10 C Hitchcock 1 868.5000 116 2 Hali Trevena 868.5000 0.4394 58
Par4 Discs Presents Chasing Aces 2 at Alex Clark 2021-06-27 C McKinney 1 814.0000 18 1 PDGA #88653 814.0000 0.3273 18
IDW Sunday C-Tier Flex @ Arcadia 2021-06-27 C HALTOM CITY 1 846.0000 23 1 PDGA #88653 846.0000 0.3485 23
IDW SAT C-Tier Flex @ Gateway supported by INNOVA 2021-06-26 C HALTOM CITY 1 739.0000 23 1 PDGA #88653 739.0000 0.3239 23
DISConnect WTF Mini (Weekly Thursday Flex-start) 2021-06-24 L Lubbock 2 891.0000 0 1 Jenny Munn 891.0000 0
Chicks Chasing Chains 2021 Session 2 2021-06-23 L Conroe 4 885.3333 0 6 Casey Pennington 909.6000 0
Dynamic Discs Presents the Abilene Wild Hair 2021-06-20 B Abilene 5 823.1333 900 3 Hali Trevena 862.0000 1.5789 300
19th Fahrenheit Fling presented by Texas Chainwreck & ADGA 2021-06-19 B Arlington 1 771.0000 208 2 PDGA #87385 771.0000 0.7879 104
Sunday Funday @ North Park 6/13/21 2021-06-13 C white settlement 1 861.0000 46 1 PDGA #88653 861.0000 0.7419 46
The Art Elliott Memorial presented by Chop Chop Rice Co. - a Top of Texas Event 2021-06-13 B Amarillo 2 828.1667 501 3 PDGA #57878 827.3333 0.7696 167
The Air Show 2021- Driven by Innova - presented by Gorilla Disc Golf 2021-06-12 C Baytown 1 775.0000 90 2 Hali Trevena 775.0000 0.3285 45
Heritage Park Open 2021-06-12 C Belton 1 747.0000 90 2 PDGA #88653 747.0000 0.2557 45
Dynamic Discs Flex Start Friday @ Alex Clark 2021-06-11 C McKinney 1 863.0000 15 1 PDGA #88653 863.0000 0.2885 15
Dynamic Discs Presents the Nacogdoches Open 2021-06-06 B Nacogdoches 6 877.4667 1,800 3 Maria Oliva 941.6667 2.3529 400
Tornado Alley Open 2021-06-06 B Wichita Falls 2 831.0000 525 3 PDGA #87385 841.0000 0.8706 175
Chainwreck Flex at Vets VI 2021-05-30 C Arlington 3 820.0000 33 1 PDGA #116281 827.0000 0.0000 0
Chainwreck Flex at Vets VI 2021-05-30 C Arlington 3 820.0000 33 1 PDGA #88653 827.0000 0.5000 33
Chainwreck Flex at Gateway V 2021-05-29 C Fort Worth 2 807.5000 0 1 PDGA #116281 848.0000 0.0000 0
Eli's Saucer Tosser 2021-05-29 C Sherman 1 800.0000 86 2 PDGA #88653 800.0000 0.2622 43
Battle @ Saddle III 2021-05-23 C white settlement 1 789.0000 23 1 PDGA #88653 789.0000 0.3151 23
2021 Texas Women's DIsc Golf Championship 2021-05-23 B Temple 4 898.4167 3,030 3 Stephanie Vincent 950.0000 3.4536 632
DISConnect One Day C Tier/Battle at Brownfield 2021-05-22 C Brownfield 2 859.5000 272 2 Holly May 885.5000 1.1429 136
20th Z Boaz Open 2021-05-16 B FT Worth 7 861.7778 1,329 3 Maria Oliva 907.0000 1.3532 272
Z Boaz Open Friday Flex 2021-05-14 C FT Worth 1 832.0000 28 1 Tavish Carduff 832.0000 0.4308 28
Dynamic Discs Presents the Mother's Day Madness - Pro/Intermediate 2021-05-09 B Trophy Club 1 854.0000 0 2 PDGA #116281 854.0000 0.0000 0
Top of Texas Disc Golf presents: Dalhart Dustbowl VI + WGE 2021-05-09 A Dalhart 4 870.8333 1,695 3 Maria Oliva 911.0000 1.9081 353
WGE - Women Throwing Frisbees 2021-05-08 C Austin 6 849.9167 0 2 PDGA #95481 895.0000 0.0000 0
WGE - Chicks Chasing Chains - HTX 2021-05-08 C SPRING 2 882.0000 174 2 PDGA #36811 890.5000 0.7632 87
WGE - 6th Annual Miss McKinney presented by Tree Love 2021-05-08 C McKinney 3 801.3333 120 2 PDGA #116281 870.0000 0.0000 0
Fairway to Heaven II at Windwood Church - by Houston Disc Golf 2021-05-01 C Houston 2 859.5000 406 2 PDGA #97672 878.5000 1.3810 203
CB Mayhem at Munson - All Pros, All Intermediate, All Women, All Juniors - Driven by Innova 2021-04-25 B Denison 1 898.0000 134 2 Katelyn Belty 898.0000 0.5234 67
West Texas Shootout 2021-04-25 B Lubbock 6 848.5000 1,104 3 Holly May 902.6667 1.1848 250
2nd Annual FOX Trot driven by Innova 2021-04-24 C Victoria 2 802.7500 262 2 PDGA #44943 823.0000 0.7844 131
RAD Vibes Ladies League 2021-04-20 L Austin 9 875.3889 0 6 Shannon Prendergast 898.0000 0
RAD Vibes Ladies League 2021-04-20 L Austin 9 875.3889 0 6 Melody Castruita 895.0000 0
Dynamic Discs Presents the Cedar Hill Chill 2021-04-17 B Cedar Hill 2 908.0000 300 2 Maria Oliva 939.0000 1.2605 150
Lone Star Disc Presents: the Spring Wide Open — a GDG $5K/$10K event 2021-04-11 B Spring 7 868.7143 2,310 3 Krissie Fountain 914.6667 1.5960 316
Idealasaurus @ Dino Hills Disc Golf Farm 2021-04-11 C Glen Rose 1 833.0000 0 1 PDGA #89793 833.0000 0.0000 0
Top of Texas Winter Series #6- Palo Duro Lake 2021-04-10 C Spearman 1 873.0000 116 2 PDGA #101735 873.0000 0.4677 58
Wide-Open Warm-Up Brought to you by Lucky Ace Discs 2021-04-09 C Spring 1 877.0000 38 1 Hali Trevena 877.0000 0.6667 38
Lone Star Classic Driven by Innova 2021-04-04 B Austin 24 894.7018 40,599 3 Lisa Fajkus 971.0000 19.6592 3,519
26th Annual Texas State Disc Golf Championship Presented by Latitude 64 - National Tour 2021-03-28 NT Tyler 37 917.8333 39,075 3 Hailey King 967.0000 16.2162 3,000
Texas State One Round Challenge @ Juniper Hills #3 2021-03-27 C Flint 1 876.0000 15 1 Ellen Widboom 876.0000 0.2273 15
2021 Greater Houston Disc Golf Championships - Gorilla Disc Golf - Driven by Innova 2021-03-21 B Baytown 3 840.3333 1,080 3 Christina Linthicum 909.6667 1.2640 225
Discraft presents The Open at Belton a DGPT Silver Series Event 2021-03-21 DGPT-Silver Belton 27 912.5926 16,665 3 Catrina Allen 979.0000 6.0109 1,100
DDGA Central Open 2021 2021-03-21 C Waco 3 751.0000 360 2 PDGA #51555 842.5000 0.0000 0
Crosstown Clash Winter League 2021-03-20 L Arlington 2 0 0 PDGA #97355 0
DGPT - Waco Annual Charity Open presented by Prodigy Disc 2021-03-14 DGPT Waco 32 925.8542 35,295 3 Kona Panis 996.6667 13.5135 2,500
Red Rock Show presented by Mint Discs 2021-03-07 B Red Rock 3 863.1111 933 3 Shannon Prendergast 901.6667 0.8083 194
Chainwreck Flex at Vets V 2021-03-07 C Arlington 1 825.0000 22 1 PDGA #7853 825.0000 0.3143 22
19th Annual Crush on the Concho 2021-03-07 B San Angelo 8 868.0000 2,346 3 Catrina Allen 967.0000 2.2126 385
Dynamic Discs Flex Start Friday @ Jimmy Porter 2021-03-05 C Carrollton 1 790.0000 15 1 Maria Oliva 790.0000 0.2174 15
3rd Annual Swordstone Shiver Powered by Prodigy 2021-02-28 B Spicewood 4 850.3750 740 2 Shannon Prendergast 865.0000 1.8217 235
Top of Texas Winter Series #4- Pampa 2021-02-20 C Pampa 1 854.0000 66 2 PDGA #101735 854.0000 0.2640 33
Hub City Classic presented by DISConnect 2021-02-20 C Lubbock 2 877.2500 272 2 Holly May 883.5000 0.9444 136
The 38th Annual Victoria Open driven by Innova 2021-02-14 A Victoria 10 898.5263 2,494 2 Lisa Fajkus 946.5000 4.0556 511
Barsby Battle #2 - Flex At The Zip 2021-02-13 C Helotes 1 877.0000 38 1 Danielle Vargas 877.0000 0.5588 38
The Blast presented by Dynamic Discs 2021-02-13 C Houston 2 844.5000 60 1 Courtney Cannon 890.0000 0.8108 60
Bat City Open 2021-02-07 C Del Valle 3 808.6667 0 1 PDGA #47683 828.0000 0.0000 0
Realside's Tex-Flex 2021-02-05 C Tyler 1 859.0000 15 1 Julie Eagle 859.0000 0.2419 15
Baytown Boomtown - Driven by Innova 2021-01-31 C Baytown 3 894.6667 270 2 Christina Linthicum 947.0000 0.6641 85
10th Annual Sugar Land Showdown - Driven by Innova / Presented by Gorilla Disc Golf 2021-01-30 B Sugar Land 4 899.5000 620 2 Lisa Fajkus 947.0000 1.5116 195
Dynamic Discs Flex Start Friday @ Greenbelt 2021-01-29 C Carrollton 1 835.0000 15 1 Maria Oliva 835.0000 0.2273 15
Dynamic Discs Presents the Winter Warm Up 2021-01-23 B Lewisville 2 870.5000 214 2 Katelyn Belty 898.0000 0.8843 107
Bill and Ted Go to the Zip 2021-01-16 C Helotes 1 773.0000 20 1 Erin Reynolds 773.0000 0.2532 20
Dynamic Discs Presents Straddle the Brazos 2021-01-10 B Waco 6 871.5000 315 1 Krissie Fountain 899.0000 3.1250 175
Top of Texas Winter Series #3- Hereford 2021-01-02 C Hereford 1 930.5000 66 2 PDGA #101735 930.5000 0.2973 33
SV Flex Friday Winter Series #3 2021-01-01 C Spring 1 893.0000 30 1 Hali Trevena 893.0000 0.4478 30
43rd Annual Waterloo Disc Golf Classic 2020-12-20 C Red Rock 3 889.7778 450 3 Krissie Fountain 931.6667 1.0490 150
Top of Texas Winter Series #2- Greenbelt Lake 2020-12-12 C Clarendon 1 892.0000 66 2 PDGA #101735 892.0000 0.2640 33
Gun Barrel Shootout presented by 1st Call Restoration and Innova Discs 2020-12-12 B Gun Barrel 1 861.5000 190 2 Katelyn Belty 861.5000 0.7661 95
Piney Woods Open 2020-12-06 B Tyler 3 879.8889 1,140 4 Krissie Fountain 905.0000 0.7206 178
Southern Star Disc Golf Duo #5 -- Driven by Innova 2020-12-05 B Conroe 4 873.2500 556 2 Casey Pennington 969.5000 1.6111 174
Hamilton Creek Open - Driven by Innova 2020-11-29 C Burnet 1 900.5000 90 2 PDGA #99350 900.5000 0.3750 45
5th Street - Driven by Innova 2020-11-28 C Temple 1 877.5000 90 2 PDGA #99350 877.5000 0.3435 45
The Open at Belton presented by Discraft 2020-11-22 A Belton 9 904.4444 4,221 3 Valerie Mandujano 953.3333 3.2320 585
Dynamic Discs Presents the Trophy Club Open 2020-11-15 B Trophy Club 2 848.0000 0 2 PDGA #89793 867.5000 0.0000 0
Top of Texas Winter Series #1- Amarillo 2020-11-14 C Amarillo 1 868.0000 66 2 PDGA #101735 868.0000 0.2215 33
KR8om presents The 30th Veterans Park Open Powered by Legacy Discs Pro Weekend 2020-11-08 A Arlington 6 889.7222 3,150 3 Catrina Allen 963.0000 2.5701 550
2020 Flex Start #3 - Wilco - Presented by Dynamic Discs 2020-11-08 C Austin 2 895.5000 110 1 Lisa Fajkus 914.0000 1.7188 110
5th Annual Miss Mckinney 2020-10-31 C McKinney 1 828.5000 96 2 PDGA #53751 828.5000 0.4286 48
Chicks Chasing Chains 2020 Session 3 2020-10-28 L Spring 7 848.3333 0 6 PDGA #97672 883.8333 0
Spring Valley Spectacular Troy Kirkpatrick Memorial 2020-10-25 B Spring 9 891.6667 1,570 2 Stephanie Vincent 959.5000 2.0645 320
Dynamic Discs Presents the Nacogdoches Open 2020-10-18 B Nacogdoches 7 904.9524 2,100 3 Valerie Mandujano 960.0000 2.2346 400
Dynamic Discs Flex Start Friday @ Pioneer 2020-10-16 C Nacogdoches 1 773.0000 15 1 PDGA #22432 773.0000 0.1807 15
McCullough Park Monday Night Fall League 2020 2020-10-12 L Lubbock 1 832.0000 0 2 Jenny Munn 832.0000 0
Jack Brooks Open 2020 - Sponsored by Bayou City Disc Golf and Driven by Innova-Gorilla Disc Golf 2020-10-10 B Sante Fe 3 876.5000 530 2 Krissie Fountain 920.0000 1.4530 170
Thursday Throwdown Ladies League 2020-10-08 L Manor 5 888.2632 0 6 Shannon Prendergast 937.0000 0
SV PDGA Flex Entry Tuesday League Session II 2020-10-06 L Spring 2 845.6250 0 7 PDGA #97672 893.0000 0
The 25th Annual Texas State Disc Golf Championships Presented by Latitude 64 - GDG $5K/$10K Event 2020-10-04 A Tyler 5 907.0000 3,300 3 Valerie Mandujano 969.6667 3.8674 700
West Texas Disc Golf Champions Tournament 2020-10-04 B Big Spring 5 855.0000 1,845 3 Jenny Munn 873.3333 1.8483 390
The Art Elliott Memorial II presented by Top of Texas Disc Golf 2020-09-20 B Amarillo 2 860.3333 645 3 PDGA #101735 867.6667 1.0094 215
2020 Texas Women's Championships 2020-09-20 B Temple 13 894.3333 4,167 3 Valerie Mandujano 957.6667 2.5500 459
Dynamic Discs Presents the Lewisville Open in Memory of Tom "Old Man" McCutcheon 2020-09-13 B Lewisville 1 798.3333 210 3 PDGA #87385 798.3333 0.3333 70
Dynamic Discs Flex Start Friday @ Old Man 2020-09-11 C Lewisville 1 818.0000 10 1 PDGA #7853 818.0000 0.1493 10
Chicks Chasing Chains 2020 Session 2 2020-09-09 L Houston 5 834.2778 0 6 PDGA #97672 884.6667 0
Seguin Summer Blast - Driven by Innova 2020-08-30 C Seguin 1 890.5000 90 2 PDGA #67404 890.5000 0.3659 45
Women Crush Falcon Pointe 2020-08-29 C Pflugerville 1 884.5000 0 2 PDGA #89793 884.5000 0.0000 0
Triple Play @Gateway Park Driven by Ideal Discs 2020-08-23 C Fort Worth 3 802.3333 25 1 Rochelle Browning 852.0000 0.0000 0
Fairway to Heaven at Windwood Church DGC - a Gorilla Disc Golf event Sponsored by Dynamic Discs 2020-08-22 C Houston 2 889.2500 244 2 Krissie Fountain 932.0000 0.9385 122
7th Annual Crosstown Throwdown 2020-08-16 B Temple 1 901.3333 273 3 Krissie Fountain 901.3333 0.4715 91
Bill & Ted Go To Spring & Shawshank 2020-08-09 B Spring/Huntsville 4 888.0000 760 2 Casey Pennington 923.5000 1.9915 235
Chainwreck Flex at Vets IV 2020-08-08 C arlington 1 22 1 PDGA #7853 0.0220 22
Thursday Throwdown Ladies League 2020-08-06 L Round Rock 5 868.8750 0 6 PDGA #84208 871.6667 0
Guthrie Creek Warm Up IX - Presented by LDGA + Driven by Innova 2020-08-01 B Longview 1 826.0000 210 2 PDGA #65751 826.0000 0.8203 105
SV PDGA Flex Entry Tuesday League Session I 2020-07-28 L Spring 3 821.4444 0 9 PDGA #97672 0
Warm Up for the Warm Up Flex Start 2020-07-26 C Longview 2 903.0000 45 1 Julie Eagle 903.0000 0.8182 45
Lindsey Park Championship presented by Slow and Steady DG Sponsored by PRODIGY DISC 2020-07-25 C Tyler 3 888.6667 370 2 Julie Eagle 923.0000 1.0000 116
Dynamic Discs Presents the 28th Big Arms on the Brazos - CDG $5K/$10K Event 2020-07-19 B Lubbock 6 888.7778 3,300 3 Valerie Mandujano 939.3333 3.4286 600
The Fox Trot 2020-07-11 C Victoria 4 864.5000 520 2 Valerie Mandujano 946.0000 1.2132 165
Sup Dog Open 2020-07-11 C Lubbock 4 866.5000 424 2 Holly May 899.5000 1.1290 140
Greater Houston Disc Golf Championship - Driven by Innova & presented by Gorilla Disc Golf 2020-06-28 B Baytown 7 901.9048 1,938 3 Valerie Mandujano 934.3333 1.7953 307
Dynamic Discs Presents the Abilene Wild Hair 2020-06-21 B Abilene 2 849.2500 300 2 PDGA #99350 877.5000 1.1811 150
Barsby Battle Series @ Hinsley 2020-06-14 C Longview 1 829.0000 45 1 Julie Eagle 829.0000 0.7143 45
Low Putt Disc Golf presents The Luck of the Draw presented by Innova 2020-06-07 B Odessa 1 895.0000 285 3 Holly May 895.0000 0.4185 95
Antivirus Flex Start 2020-03-17 C Waco 1 947.0000 22 1 Madison Tomaino 947.0000 0.3284 22
DGPT - Waco Annual Charity Open presented by Prodigy Disc 2020-03-14 DGPT Waco 28 925.7500 17,890 2 Eveliina Salonen 997.0000 17.1371 2,125
18th Annual Crush on the Concho Powered by Prodigy 2020-03-08 B San Angelo 4 903.9167 1,185 3 Catrina Allen 946.6667 1.3209 247
Spring Fling @ North Park 2020-03-08 C Haltom City 1 860.0000 98 2 PDGA #72520 860.0000 0.3311 49
22nd Annual Red Rock Show powered by Innova 2020-03-08 B Red Rock 6 887.8333 1,455 3 Valerie Mandujano 932.3333 1.4691 285
Alvin Charity Open presented by Alvin Noon Lions CLub / Gorilla Disc Golf- Driven by Innova 2020-03-07 B Alvin 2 935.7500 450 2 Casey Pennington 945.5000 1.8293 225
Flex Friday Winter Series #5 Final 2020-03-06 C Spring 1 807.0000 57 1 PDGA #77454 807.0000 0.7500 57
2020 Seguin Sling - Driven by Innova 2020-03-01 C Seguin 1 880.0000 90 2 PDGA #67404 880.0000 0.3333 45
Spring Valley Tuesday Winter PDGA League Session II 2020-02-25 L Spring 3 0 0 Andi Young 0
Spring Valley Tuesday Winter PDGA League Session II 2020-02-25 L Spring 3 0 0 PDGA #97672 0
2nd Annual Swordstone Shiver Driven by Innova 2020-02-23 B Spicewood 10 889.9000 1,320 2 Valerie Mandujano 965.0000 2.8378 315
37th Victoria Open 2020-02-16 B Victoria 7 879.6190 1,755 3 Valerie Mandujano 953.0000 1.6279 280
Rivery Gold - Driven by Innova 2020-02-16 C Georgetown 2 864.5000 0 2 PDGA #95481 863.5000 0.0000 0
Lone Star Classic 2020-02-09 B Austin 8 904.2500 4,983 3 Lisa Fajkus 945.3333 3.5842 681
Flex Friday Winter Series #4 2020-02-07 C Spring 1 878.0000 30 1 Andi Young 878.0000 0.4478 30
Waterloo DGC's Super Saturday 2020-02-01 XC Austin 2 856.5000 0 1 Krissie Fountain 862.0000 0.0000 0
Sugar Land Showdown 2020-01-25 C Sugar Land 4 861.6250 516 2 Christina Linthicum 913.0000 1.1739 162
Dynamic Discs Presents Straddle the Brazos 2020-01-12 B Waco 7 894.5714 740 2 Lisa Fajkus 939.5000 1.6393 200
SV Flex Friday Winter Series #3 2020-01-10 C Spring 1 807.0000 30 1